Time;durP1;ratioP1;P1;durP2;ratioP2;P2;SDS_P1;SDS_P2;PMS_P1;PMS_P2;Temp;Humidity;BMP_temperature;BMP_pressure;BME280_temperature;BME280_humidity;BME280_pressure;Samples;Min_cycle;Max_cycle;Signal;HPM_P1;HPM_P2
2022/05/18 00:01:41;;;;;;;6.50;2.72;;;;;;;21.77;71.58;100568.38;4981483;28;20382;-89
2022/05/18 00:04:06;;;;;;;9.93;3.53;;;;;;;21.55;72.93;100565.41;4999060;28;20079;-88
2022/05/18 00:06:32;;;;;;;12.05;3.63;;;;;;;21.41;74.96;100573.94;4998797;28;20038;-89
2022/05/18 00:08:57;;;;;;;8.45;3.70;;;;;;;21.36;75.57;100573.81;4998795;28;20034;-89
2022/05/18 00:11:23;;;;;;;15.52;3.85;;;;;;;21.34;75.91;100571.34;4981007;28;20033;-89
2022/05/18 00:13:52;;;;;;;8.38;3.30;;;;;;;21.36;75.83;100576.50;4981564;28;20111;-87
2022/05/18 00:16:20;;;;;;;12.25;4.03;;;;;;;21.36;76.11;100581.91;4998665;28;20580;-91
2022/05/18 00:18:46;;;;;;;10.45;3.65;;;;;;;21.33;76.29;100587.75;4996882;28;20077;-89
2022/05/18 00:21:13;;;;;;;9.77;3.30;;;;;;;21.19;76.53;100584.44;4998494;28;20031;-88
2022/05/18 00:23:38;;;;;;;9.77;3.55;;;;;;;21.20;76.71;100593.34;4998597;28;20030;-88
2022/05/18 00:26:05;;;;;;;11.98;3.65;;;;;;;21.26;75.54;100587.84;5000565;28;20050;-83
2022/05/18 00:28:31;;;;;;;14.20;3.42;;;;;;;21.32;75.31;100594.19;5006862;28;20034;-84
2022/05/18 00:31:04;;;;;;;5.95;3.00;;;;;;;21.52;74.51;100603.63;5006332;28;20034;-84
2022/05/18 00:33:33;;;;;;;10.27;4.43;;;;;;;21.50;74.49;100604.91;5006499;28;20070;-80
2022/05/18 00:36:05;;;;;;;8.30;3.75;;;;;;;21.50;74.37;100604.91;5008762;28;20026;-80
2022/05/18 00:38:32;;;;;;;10.07;3.20;;;;;;;21.55;74.93;100597.75;4994996;28;20489;-83
2022/05/18 00:41:01;;;;;;;10.05;3.83;;;;;;;21.46;75.25;100587.53;4991980;28;20053;-81
2022/05/18 00:43:30;;;;;;;8.13;3.58;;;;;;;21.46;75.13;100591.06;4991741;28;20038;-81
2022/05/18 00:46:02;;;;;;;9.30;3.40;;;;;;;21.37;75.58;100591.63;5007348;28;20034;-81
2022/05/18 00:48:33;;;;;;;9.90;3.78;;;;;;;21.30;76.35;100591.75;5010364;28;20093;-81
2022/05/18 00:51:33;;;;;;;8.88;3.58;;;;;;;21.43;75.03;100602.31;4995623;28;20049;-79
2022/05/18 00:54:37;;;;;;;13.23;3.30;;;;;;;21.25;76.52;100591.59;5003300;28;20060;-83
2022/05/18 00:57:43;;;;;;;8.77;3.85;;;;;;;20.98;78.71;100599.19;5009957;28;20042;-82
2022/05/18 01:00:35;;;;;;;9.50;3.88;;;;;;;20.86;80.00;100603.72;5011550;28;20062;-83
2022/05/18 01:03:35;;;;;;;8.98;4.00;;;;;;;20.65;80.72;100616.84;5007052;28;20034;-79
2022/05/18 01:06:21;;;;;;;13.13;3.72;;;;;;;20.44;82.10;100602.78;4984711;28;20563;-81
2022/05/18 01:09:01;;;;;;;14.43;4.15;;;;;;;20.59;81.48;100607.78;5425629;23;20036;-80
2022/05/18 01:11:30;;;;;;;11.13;4.32;;;;;;;20.33;83.34;100613.47;5062515;28;20093;-81
2022/05/18 01:14:40;;;;;;;12.98;4.40;;;;;;;20.32;83.96;100607.25;5067148;28;20025;-83
2022/05/18 01:17:23;;;;;;;7.55;3.95;;;;;;;20.39;83.35;100608.00;5057179;22;20109;-82
2022/05/18 01:20:00;;;;;;;13.75;4.00;;;;;;;20.44;82.51;100610.03;5043748;28;20033;-82
2022/05/18 01:23:01;;;;;;;12.82;4.50;;;;;;;20.33;83.41;100613.47;5047945;28;20028;-82
2022/05/18 01:25:51;;;;;;;10.45;4.13;;;;;;;20.34;83.78;100621.34;5050124;28;20037;-81
2022/05/18 01:28:35;;;;;;;10.70;4.15;;;;;;;20.27;83.36;100608.97;5331322;22;20052;-81
2022/05/18 01:31:05;;;;;;;11.80;4.28;;;;;;;20.16;84.82;100623.13;5098876;23;20048;-81
2022/05/18 01:33:42;;;;;;;9.82;4.57;;;;;;;20.02;85.86;100620.56;5058154;28;20045;-80
2022/05/18 01:36:31;;;;;;;8.13;3.88;;;;;;;20.27;84.22;100620.56;5073372;28;20037;-79
2022/05/18 01:39:05;;;;;;;12.63;4.00;;;;;;;20.22;84.39;100616.88;5070831;28;20053;-81
2022/05/18 01:41:55;;;;;;;7.97;3.67;;;;;;;20.20;84.79;100611.72;5072110;28;20029;-83
2022/05/18 01:44:22;;;;;;;8.73;3.53;;;;;;;20.38;83.31;100629.78;5037358;28;20484;-83
2022/05/18 01:49:29;;;;;;;10.73;3.60;;;;;;;20.35;83.52;100633.72;4955100;26;20045;-81
2022/05/18 01:52:01;;;;;;;10.65;3.83;;;;;;;20.47;82.85;100631.13;5067705;28;20025;-82
2022/05/18 01:54:27;;;;;;;13.38;4.18;;;;;;;20.10;85.56;100624.84;5067125;28;20569;-80
2022/05/18 01:56:52;;;;;;;12.82;3.78;;;;;;;20.09;85.74;100621.31;5050855;28;20071;-80
2022/05/18 01:59:18;;;;;;;11.73;4.18;;;;;;;19.93;86.48;100634.53;5063951;28;20033;-81
2022/05/18 02:01:46;;;;;;;14.00;3.95;;;;;;;19.95;86.77;100637.81;5065295;22;20052;-81
2022/05/18 02:04:40;;;;;;;16.42;4.50;;;;;;;20.05;86.31;100630.88;5051048;28;20017;-81
2022/05/18 02:07:07;;;;;;;10.98;4.32;;;;;;;19.99;86.71;100623.69;5051320;28;20049;-82
2022/05/18 02:09:39;;;;;;;14.70;4.53;;;;;;;19.89;88.17;100627.94;5016253;28;20044;-84
2022/05/18 02:12:09;;;;;;;13.77;4.47;;;;;;;20.06;87.61;100629.00;5048472;28;20096;-81
2022/05/18 02:14:38;;;;;;;9.70;4.10;;;;;;;20.00;87.57;100625.34;5049238;28;20550;-81
2022/05/18 02:17:13;;;;;;;9.40;4.00;;;;;;;19.95;87.64;100627.88;5016048;28;20473;-79
2022/05/18 02:19:43;;;;;;;14.27;5.00;;;;;;;20.06;86.78;100632.53;5047966;28;20085;-82
2022/05/18 02:22:12;;;;;;;10.38;4.13;;;;;;;20.13;86.28;100625.22;5047730;28;20040;-82
2022/05/18 02:24:39;;;;;;;13.40;4.63;;;;;;;20.19;85.29;100633.44;5031111;28;20045;-81
2022/05/18 02:29:36;;;;;;;15.15;4.53;;;;;;;20.17;85.04;100643.63;5026956;28;20069;-82
2022/05/18 02:32:05;;;;;;;7.82;4.03;;;;;;;20.07;85.90;100636.06;5029774;28;20038;-81
2022/05/18 02:34:45;;;;;;;9.85;4.45;;;;;;;19.98;86.47;100643.59;5031365;28;20030;-81
2022/05/18 02:37:33;;;;;;;11.18;4.50;;;;;;;19.86;87.74;100631.88;5013662;28;20026;-81
2022/05/18 02:40:16;;;;;;;14.75;4.05;;;;;;;20.17;85.75;100635.53;5033702;28;20042;-81
2022/05/18 02:46:25;;;;;;;12.43;3.63;;;;;;;20.20;85.20;100637.78;5032192;28;20022;-82
2022/05/18 02:48:58;;;;;;;14.85;3.95;;;;;;;20.01;86.50;100635.09;5032918;28;20049;-81
2022/05/18 02:51:32;;;;;;;9.95;4.15;;;;;;;19.94;87.35;100634.31;5013703;28;20037;-81
2022/05/18 02:56:05;;;;;;;10.18;3.80;;;;;;;19.82;87.70;100636.06;5030881;28;20046;-92
2022/05/18 02:56:48;;;;;;;12.00;4.45;;;;;;;19.83;87.40;100639.56;5033298;28;20049;-90
2022/05/18 02:59:13;;;;;;;8.98;4.32;;;;;;;19.75;87.99;100647.94;5033725;28;20046;-91
2022/05/18 03:01:42;;;;;;;10.23;4.13;;;;;;;19.73;87.97;100645.44;5033848;28;20037;-89
2022/05/18 03:04:11;;;;;;;17.67;4.80;;;;;;;19.83;87.66;100656.53;5033505;28;20034;-90
2022/05/18 03:06:40;;;;;;;11.27;3.72;;;;;;;19.64;88.67;100652.13;5015889;28;20037;-88
2022/05/18 03:09:06;;;;;;;11.55;4.13;;;;;;;19.72;88.21;100654.53;5033518;28;20042;-93
2022/05/18 03:11:38;;;;;;;11.40;4.70;;;;;;;19.64;88.57;100665.59;5016939;28;20038;-88
2022/05/18 03:14:03;;;;;;;16.42;4.22;;;;;;;19.64;88.31;100662.06;5015889;28;20026;-91
2022/05/18 03:16:35;;;;;;;7.90;3.80;;;;;;;19.70;87.57;100671.94;5016900;28;20042;-91
2022/05/18 03:19:01;;;;;;;8.80;4.43;;;;;;;19.72;87.48;100677.94;5016517;28;20045;-93
2022/05/18 03:24:12;;;;;;;12.95;4.50;;;;;;;19.78;87.61;100674.38;5016155;28;20088;-89
2022/05/18 03:26:38;;;;;;;10.30;4.30;;;;;;;19.73;88.16;100677.72;5033166;28;20046;-89
2022/05/18 03:29:17;;;;;;;12.52;4.28;;;;;;;19.67;88.70;100683.97;5031935;28;20056;-92
2022/05/18 03:31:46;;;;;;;10.02;3.90;;;;;;;19.66;88.36;100695.75;4998400;28;20156;-88
2022/05/18 03:34:11;;;;;;;14.07;4.50;;;;;;;19.65;88.84;100699.50;5016230;28;20045;-91
2022/05/18 03:36:37;;;;;;;11.90;5.53;;;;;;;19.57;89.17;100697.88;5029981;28;20034;-87
2022/05/18 03:39:04;;;;;;;12.05;5.05;;;;;;;19.46;88.98;100695.88;5022111;28;20072;-89
2022/05/18 03:41:30;;;;;;;15.52;5.20;;;;;;;19.35;90.01;100704.63;5000545;28;20029;-89
2022/05/18 03:43:55;;;;;;;13.75;4.53;;;;;;;19.49;89.26;100708.06;5018142;28;20428;-88
2022/05/18 03:46:21;;;;;;;16.65;5.28;;;;;;;19.30;89.91;100703.59;5025162;28;20073;-88
2022/05/18 03:48:47;;;;;;;11.60;4.85;;;;;;;19.19;91.05;100712.34;5022989;28;20596;-89
2022/05/18 03:51:16;;;;;;;17.27;5.28;;;;;;;19.21;91.33;100705.72;5019692;28;20038;-90
2022/05/18 03:53:42;;;;;;;12.10;5.13;;;;;;;19.16;91.85;100707.41;5017858;28;20042;-91
2022/05/18 03:56:09;;;;;;;15.95;4.85;;;;;;;18.90;93.22;100714.50;5019978;28;20032;-90
2022/05/18 03:58:35;;;;;;;13.98;4.97;;;;;;;18.79;94.75;100722.41;5017976;28;20116;-88
2022/05/18 04:01:08;;;;;;;15.48;4.60;;;;;;;18.75;95.13;100716.63;5017403;28;20052;-89
2022/05/18 04:03:33;;;;;;;;;;;;;;;18.70;95.58;100724.47;5017894;28;20029;-87
2022/05/18 04:05:59;;;;;;;12.07;5.28;;;;;;;18.72;95.57;100718.91;5017646;28;19960;-88
2022/05/18 04:08:24;;;;;;;9.80;5.35;;;;;;;18.82;94.55;100730.84;5001458;28;20460;-88
2022/05/18 04:10:50;;;;;;;9.48;4.97;;;;;;;18.86;95.09;100729.38;5019161;28;20048;-90
2022/05/18 04:13:21;;;;;;;15.57;5.50;;;;;;;18.69;96.54;100730.88;5019487;28;20037;-87
2022/05/18 04:15:47;;;;;;;13.75;5.22;;;;;;;18.71;96.59;100741.41;5019117;28;20195;-91
2022/05/18 04:18:17;;;;;;;12.93;5.38;;;;;;;18.70;96.30;100740.56;5018143;28;20022;-89
2022/05/18 04:20:43;;;;;;;16.98;4.90;;;;;;;18.58;97.35;100736.88;5001338;28;20129;-87
2022/05/18 04:23:12;;;;;;;21.13;6.20;;;;;;;18.67;96.54;100742.84;5002923;28;20033;-87
2022/05/18 04:25:39;;;;;;;19.55;5.82;;;;;;;18.74;97.02;100743.66;5017983;28;20034;-89
2022/05/18 04:28:07;;;;;;;16.05;5.57;;;;;;;18.68;97.29;100742.66;5017223;28;20038;-89
2022/05/18 04:30:33;;;;;;;16.02;5.70;;;;;;;18.54;98.38;100751.75;4999667;28;20038;-90
2022/05/18 04:32:59;;;;;;;20.00;5.88;;;;;;;18.61;98.29;100763.31;5016130;28;20075;-87
2022/05/18 04:35:27;;;;;;;14.75;5.93;;;;;;;18.75;97.85;100770.31;5014682;28;20188;-90
2022/05/18 04:37:53;;;;;;;33.10;7.38;;;;;;;18.84;97.53;100768.22;4998666;28;20416;-88
2022/05/18 04:40:19;;;;;;;19.10;5.68;;;;;;;18.92;97.15;100771.53;4998587;28;20065;-85
2022/05/18 04:42:45;;;;;;;16.05;6.30;;;;;;;18.77;97.19;100778.97;5018090;28;20493;-88
2022/05/18 04:45:13;;;;;;;17.88;5.75;;;;;;;18.77;97.63;100783.53;5019325;28;20038;-89
2022/05/18 04:47:39;;;;;;;15.23;6.03;;;;;;;18.78;97.96;100782.50;5016956;28;20066;-87
2022/05/18 04:50:05;;;;;;;14.65;5.72;;;;;;;18.96;96.57;100783.47;5015760;28;20103;-89
2022/05/18 04:52:38;;;;;;;12.23;5.65;;;;;;;19.27;94.97;100792.69;5019223;28;20018;-85
2022/05/18 04:55:07;;;;;;;22.15;6.13;;;;;;;19.55;92.27;100799.44;5010179;28;20060;-83
2022/05/18 04:57:35;;;;;;;21.88;5.70;;;;;;;19.56;92.05;100805.63;5005666;28;20034;-84
2022/05/18 05:00:02;;;;;;;15.88;6.10;;;;;;;19.60;91.86;100812.25;5007088;28;20533;-84
2022/05/18 05:02:28;;;;;;;17.98;5.43;;;;;;;19.78;90.59;100815.06;4994217;28;20041;-88
2022/05/18 05:04:54;;;;;;;13.80;5.20;;;;;;;19.92;90.12;100815.81;4995875;28;20039;-87
2022/05/18 05:07:20;;;;;;;15.43;5.13;;;;;;;20.03;88.90;100824.03;5000576;28;20035;-87
2022/05/18 05:09:46;;;;;;;14.02;5.25;;;;;;;20.15;88.04;100826.03;4994002;28;20556;-88
2022/05/18 05:12:11;;;;;;;11.75;5.38;;;;;;;20.28;86.61;100831.34;4995715;28;20034;-86
2022/05/18 05:14:40;;;;;;;11.88;5.80;;;;;;;20.38;85.56;100837.88;4994840;28;20022;-88
2022/05/18 05:17:07;;;;;;;12.68;5.43;;;;;;;20.32;86.58;100835.22;4995505;28;20038;-89
2022/05/18 05:19:35;;;;;;;22.35;5.90;;;;;;;20.19;87.35;100830.75;4995300;28;20034;-86
2022/05/18 05:22:01;;;;;;;11.60;5.82;;;;;;;20.26;86.37;100838.78;4996517;28;20034;-93
2022/05/18 05:24:27;;;;;;;16.02;5.88;;;;;;;20.08;88.87;100842.22;4998078;28;20037;-89
2022/05/18 05:26:52;;;;;;;13.63;5.95;;;;;;;19.94;88.92;100841.47;4998184;28;20459;-89
2022/05/18 05:29:19;;;;;;;18.17;6.40;;;;;;;20.05;88.81;100839.97;4995909;28;20095;-90
2022/05/18 05:31:44;;;;;;;18.70;6.60;;;;;;;20.08;88.50;100834.94;4996448;28;20053;-91
2022/05/18 05:34:10;;;;;;;15.23;6.20;;;;;;;20.38;86.89;100843.25;4996328;28;20469;-88
2022/05/18 05:36:42;;;;;;;15.55;6.45;;;;;;;20.49;86.66;100847.97;4978802;28;20085;-88
2022/05/18 05:39:08;;;;;;;24.67;6.33;;;;;;;20.64;85.37;100853.03;5002023;28;20114;-89
2022/05/18 05:41:36;;;;;;;13.75;6.82;;;;;;;20.89;83.95;100856.53;5004524;28;20052;-93
2022/05/18 05:44:05;;;;;;;13.52;6.88;;;;;;;21.12;81.25;100867.53;5000939;28;20030;-88
2022/05/18 05:46:32;;;;;;;12.75;6.80;;;;;;;21.36;80.44;100878.50;4981921;28;20115;-86
2022/05/18 05:48:58;;;;;;;19.15;7.10;;;;;;;21.41;79.19;100881.34;4999349;28;20056;-92
2022/05/18 05:51:24;;;;;;;15.45;6.72;;;;;;;21.49;77.67;100883.75;5002176;28;20038;-87
2022/05/18 05:53:55;;;;;;;15.25;6.70;;;;;;;21.86;76.62;100885.38;4985514;28;20077;-88
2022/05/18 05:56:21;;;;;;;19.77;7.07;;;;;;;21.97;74.76;100900.84;5001548;28;20053;-87
2022/05/18 05:58:48;;;;;;;19.33;6.93;;;;;;;22.11;74.25;100899.59;5001323;28;20038;-85
2022/05/18 06:01:18;;;;;;;13.77;6.80;;;;;;;22.57;71.58;100903.53;4966313;28;20047;-89
2022/05/18 06:03:45;;;;;;;14.90;6.63;;;;;;;22.91;66.85;100905.47;5003811;28;20030;-87
2022/05/18 06:06:11;;;;;;;16.13;6.05;;;;;;;23.29;66.81;100899.63;4999443;28;20042;-89
2022/05/18 06:08:47;;;;;;;16.40;6.68;;;;;;;23.42;67.51;100904.00;5001680;28;20048;-88
2022/05/18 06:11:15;;;;;;;12.52;5.80;;;;;;;23.60;63.39;100909.25;5006490;28;20060;-90
2022/05/18 06:14:06;;;;;;;17.13;6.28;;;;;;;24.32;59.44;100912.38;5014948;28;20018;-89
2022/05/18 06:16:35;;;;;;;10.98;5.25;;;;;;;25.02;56.32;100919.00;5007434;28;20400;-88
2022/05/18 06:19:01;;;;;;;7.53;3.97;;;;;;;24.49;53.76;100913.22;5006833;28;20030;-91
2022/05/18 06:21:28;;;;;;;14.02;5.30;;;;;;;24.77;54.89;100915.88;4986756;28;20039;-87
2022/05/18 06:24:03;;;;;;;18.58;6.13;;;;;;;25.53;53.77;100922.50;5001234;28;20073;-88
2022/05/18 06:26:30;;;;;;;10.75;5.05;;;;;;;26.47;51.53;100931.28;4986025;28;20158;-90
2022/05/18 06:28:59;;;;;;;16.92;6.03;;;;;;;25.88;52.71;100928.44;5001678;28;20064;-90
2022/05/18 06:31:27;;;;;;;15.57;6.18;;;;;;;26.37;52.14;100933.88;4982973;28;20038;-91
2022/05/18 06:33:56;;;;;;;14.82;5.68;;;;;;;27.01;49.77;100935.59;4984312;28;20034;-91
2022/05/18 06:36:22;;;;;;;10.80;6.30;;;;;;;27.09;50.81;100940.56;5000438;28;20053;-90
2022/05/18 06:38:48;;;;;;;17.02;6.38;;;;;;;26.47;52.24;100942.16;4999982;28;20160;-85
2022/05/18 06:41:29;;;;;;;19.10;6.03;;;;;;;27.15;50.31;100939.50;4986447;28;20514;-90
2022/05/18 06:43:58;;;;;;;13.32;6.70;;;;;;;26.76;51.45;100948.13;5000869;28;20050;-87
2022/05/18 06:46:29;;;;;;;23.25;7.38;;;;;;;25.91;54.41;100949.66;4999371;28;20030;-88
2022/05/18 06:48:56;;;;;;;14.13;6.50;;;;;;;26.05;54.01;100950.88;4985640;28;20042;-88
2022/05/18 06:51:28;;;;;;;13.77;6.55;;;;;;;26.52;52.18;100950.34;4984561;28;20026;-88
2022/05/18 06:56:31;;;;;;;15.05;7.90;;;;;;;26.49;52.71;100956.28;5060917;28;20041;-86
2022/05/18 06:58:58;;;;;;;12.23;6.50;;;;;;;27.43;50.30;100960.13;5064024;28;20048;-87
2022/05/18 07:04:15;;;;;;;15.38;7.90;;;;;;;26.68;53.55;100961.09;5069720;23;20140;-85
2022/05/18 07:06:45;;;;;;;20.25;7.93;;;;;;;25.97;55.49;100964.09;5061738;28;20041;-85
2022/05/18 07:09:17;;;;;;;13.98;7.57;;;;;;;25.75;57.65;100969.53;5061022;28;20442;-88
2022/05/18 07:11:47;;;;;;;18.98;7.55;;;;;;;26.57;55.97;100980.31;5027942;28;20037;-89
2022/05/18 07:14:13;;;;;;;13.88;7.85;;;;;;;26.70;54.70;100985.34;5062796;28;20399;-85
2022/05/18 07:16:43;;;;;;;22.38;8.38;;;;;;;26.17;55.45;100986.94;5030139;28;20493;-86
2022/05/18 07:19:10;;;;;;;20.50;7.72;;;;;;;26.15;55.73;100994.47;5060897;28;20105;-84
2022/05/18 07:21:36;;;;;;;21.48;7.80;;;;;;;26.43;54.75;100990.78;5063922;28;20021;-83
2022/05/18 07:24:06;;;;;;;15.48;7.30;;;;;;;26.89;53.76;101005.69;5048385;28;20132;-85
2022/05/18 07:26:34;;;;;;;15.55;7.88;;;;;;;26.10;54.97;100999.88;5051674;28;20058;-81
2022/05/18 07:29:04;;;;;;;19.10;7.97;;;;;;;25.85;56.09;100994.13;5049980;28;20033;-82
2022/05/18 07:32:08;;;;;;;18.15;7.78;;;;;;;25.47;57.19;100996.78;5066904;28;20037;-82
2022/05/18 07:34:35;;;;;;;20.75;10.05;;;;;;;26.46;54.12;101009.28;5070929;28;20136;-85
2022/05/18 07:37:08;;;;;;;23.00;11.05;;;;;;;25.90;57.00;101010.47;5064852;28;20033;-88
2022/05/18 07:39:35;;;;;;;25.75;11.85;;;;;;;25.90;57.21;100999.59;5026260;28;20109;-82
2022/05/18 07:42:31;;;;;;;20.48;12.40;;;;;;;26.41;57.21;100992.94;5051038;23;20025;-84
2022/05/18 07:44:56;;;;;;;21.20;13.52;;;;;;;27.09;55.66;101000.41;5043964;28;20033;-85
2022/05/18 07:47:37;;;;;;;24.80;13.50;;;;;;;26.96;56.24;101010.91;5046173;28;20029;-82
2022/05/18 07:50:12;;;;;;;23.08;12.73;;;;;;;27.41;54.32;101002.31;5024927;28;20041;-85
2022/05/18 07:52:38;;;;;;;27.97;14.77;;;;;;;26.10;58.97;101001.75;5047733;28;20029;-85
2022/05/18 07:55:10;;;;;;;23.50;13.20;;;;;;;26.08;59.20;101014.78;5049434;28;20033;-83
2022/05/18 07:57:42;;;;;;;25.67;14.27;;;;;;;26.46;57.59;101000.31;5032667;28;20076;-84
2022/05/18 08:00:09;;;;;;;22.80;13.70;;;;;;;26.44;57.49;101005.19;5057731;28;20481;-85
2022/05/18 08:02:55;;;;;;;20.42;14.05;;;;;;;26.21;59.58;101006.28;5052577;28;20064;-82
2022/05/18 08:05:21;;;;;;;30.70;14.07;;;;;;;26.59;58.61;100999.91;5028578;28;20045;-80
2022/05/18 08:07:47;;;;;;;28.90;14.80;;;;;;;26.64;58.84;101008.13;5028033;28;20496;-79
2022/05/18 08:15:48;;;;;;;27.67;14.73;;;;;;;26.39;60.56;101005.94;5041309;28;20037;-81
2022/05/18 08:18:18;;;;;;;26.15;14.55;;;;;;;26.45;59.71;100998.69;5024951;28;20053;-81
2022/05/18 08:20:45;;;;;;;28.73;14.75;;;;;;;26.75;58.24;101015.28;5042476;28;20040;-83
2022/05/18 08:23:15;;;;;;;24.20;14.68;;;;;;;26.54;59.04;101008.03;5039578;28;20087;-83
2022/05/18 08:25:44;;;;;;;25.90;12.70;;;;;;;26.83;57.92;101001.28;5040954;28;20377;-84
2022/05/18 08:28:12;;;;;;;27.80;14.32;;;;;;;27.23;56.59;101012.53;5042776;28;20397;-81
2022/05/18 08:30:55;;;;;;;23.58;13.15;;;;;;;27.95;55.05;101003.75;5054354;23;20056;-81
2022/05/18 08:33:23;;;;;;;28.27;12.80;;;;;;;27.58;54.82;101011.16;5061499;28;20053;-78
2022/05/18 08:35:55;;;;;;;22.40;12.80;;;;;;;27.99;53.82;101013.03;5060737;28;20032;-82
2022/05/18 08:38:22;;;;;;;28.80;13.70;;;;;;;27.77;53.95;101014.28;5060024;28;20060;-82
2022/05/18 08:41:08;;;;;;;29.75;13.73;;;;;;;27.82;53.89;101019.75;5060276;28;20045;-82
2022/05/18 08:43:38;;;;;;;26.58;13.85;;;;;;;27.86;54.58;101013.53;5042233;28;20057;-83
2022/05/18 08:46:23;;;;;;;27.88;15.10;;;;;;;27.60;56.48;101023.44;5058107;28;20061;-80
2022/05/18 08:48:59;;;;;;;35.08;16.15;;;;;;;27.23;57.02;101028.03;5058520;28;20037;-83
2022/05/18 08:51:45;;;;;;;31.55;14.93;;;;;;;27.20;58.88;101023.94;5060776;28;20020;-85
2022/05/18 08:54:26;;;;;;;27.73;12.77;;;;;;;27.62;57.24;101017.72;5062380;28;20033;-83
2022/05/18 08:57:02;;;;;;;26.80;14.80;;;;;;;27.71;56.25;101021.59;5063422;28;20064;-80
2022/05/18 08:59:33;;;;;;;25.30;15.00;;;;;;;27.39;57.48;101020.78;5062864;28;20098;-79
2022/05/18 09:02:03;;;;;;;27.95;15.35;;;;;;;27.09;58.35;101038.53;5063106;28;20033;-81
2022/05/18 09:04:49;;;;;;;29.13;14.13;;;;;;;27.49;58.32;101026.34;5061546;28;20037;-81
2022/05/18 09:07:21;;;;;;;23.45;15.98;;;;;;;27.89;56.57;101042.97;5059669;28;20056;-81
2022/05/18 09:10:16;;;;;;;30.33;15.00;;;;;;;28.31;55.80;101017.56;5043409;28;20065;-81
2022/05/18 09:12:50;;;;;;;29.70;14.80;;;;;;;28.25;56.75;101024.91;5041772;28;20049;-82
2022/05/18 09:15:38;;;;;;;30.10;16.70;;;;;;;28.30;55.49;101026.84;5057843;28;20072;-81
2022/05/18 09:18:13;;;;;;;24.48;15.05;;;;;;;27.99;56.09;101034.84;4977433;28;20409;-84
2022/05/18 09:21:10;;;;;;;30.60;14.13;;;;;;;28.27;56.90;101027.38;4964176;28;20478;-82
2022/05/18 09:24:07;;;;;;;30.10;16.92;;;;;;;28.07;56.69;101045.25;4980391;28;20058;-81
2022/05/18 09:26:51;;;;;;;31.13;17.08;;;;;;;27.72;58.78;101024.06;4938190;28;20051;-81
2022/05/18 09:29:41;;;;;;;29.98;15.98;;;;;;;27.87;59.41;101023.34;4985650;28;20071;-82
2022/05/18 09:32:33;;;;;;;25.95;14.27;;;;;;;28.43;56.28;101029.88;5054149;28;20052;-85
2022/05/18 09:35:35;;;;;;;26.70;14.82;;;;;;;28.46;55.71;101033.97;5052335;28;20037;-82
2022/05/18 09:38:46;;;;;;;37.40;12.52;;;;;;;28.67;54.84;101027.50;5042618;28;20029;-85
2022/05/18 09:41:17;;;;;;;19.48;10.80;;;;;;;28.86;52.57;101036.03;4994249;28;20052;-83
2022/05/18 09:44:08;;;;;;;22.80;12.18;;;;;;;28.73;53.83;101040.09;5022528;28;20049;-88
2022/05/18 09:46:36;;;;;;;27.33;14.05;;;;;;;28.40;54.35;101032.34;5053533;28;20059;-86
2022/05/18 09:49:32;;;;;;;23.73;13.45;;;;;;;28.18;55.43;101030.59;5061843;28;20029;-84
2022/05/18 09:52:20;;;;;;;23.30;11.95;;;;;;;28.55;53.89;101030.47;5062816;28;20483;-85
2022/05/18 09:54:52;;;;;;;21.02;10.55;;;;;;;28.42;53.37;101032.88;5041561;28;20128;-85
2022/05/18 09:57:23;;;;;;;19.52;9.40;;;;;;;28.69;51.42;101036.25;5026685;28;20055;-82
2022/05/18 09:59:56;;;;;;;28.83;9.80;;;;;;;28.59;50.62;101038.94;5033988;28;20460;-85
2022/05/18 10:08:19;;;;;;;19.30;9.45;;;;;;;28.30;50.69;101043.19;5051897;28;20049;-82
2022/05/18 10:10:46;;;;;;;17.40;9.75;;;;;;;27.86;51.82;101043.50;5049655;28;20077;-83
2022/05/18 10:13:16;;;;;;;26.77;8.57;;;;;;;28.08;51.19;101036.00;5034522;28;20040;-86
2022/05/18 10:15:52;;;;;;;21.70;8.85;;;;;;;27.97;51.45;101034.28;5057849;28;20013;-83
2022/05/18 10:18:36;;;;;;;20.27;7.25;;;;;;;28.27;50.04;101038.28;5057683;28;20104;-83
2022/05/18 10:21:13;;;;;;;19.85;7.93;;;;;;;27.96;49.03;101053.63;5028511;28;20037;-85
2022/05/18 10:23:52;;;;;;;11.90;6.35;;;;;;;27.86;48.89;101043.50;5024647;28;20033;-85
2022/05/18 10:26:33;;;;;;;17.27;7.38;;;;;;;28.36;47.40;101042.13;5026692;28;20029;-85
2022/05/18 10:29:20;;;;;;;12.05;7.13;;;;;;;28.39;48.10;101030.69;5030700;28;20033;-84
2022/05/18 10:32:03;;;;;;;13.20;7.32;;;;;;;28.65;48.11;101037.84;5009684;28;20057;-87
2022/05/18 10:34:41;;;;;;;23.40;7.55;;;;;;;28.46;49.28;101045.72;5030075;28;20040;-84
2022/05/18 10:37:10;;;;;;;8.90;5.78;;;;;;;28.36;49.31;101031.22;5031357;28;20052;-84
2022/05/18 10:39:46;;;;;;;20.10;5.32;;;;;;;28.46;47.74;101031.25;5042675;28;20492;-85
2022/05/18 10:42:28;;;;;;;9.73;5.57;;;;;;;28.71;46.62;101034.06;5017227;28;20044;-83
2022/05/18 10:44:56;;;;;;;12.88;4.43;;;;;;;29.00;47.64;101059.78;5034137;28;20041;-84
2022/05/18 10:47:36;;;;;;;8.25;3.95;;;;;;;29.06;48.70;101047.78;5037873;28;20040;-86
2022/05/18 10:50:24;;;;;;;10.98;4.55;;;;;;;28.56;50.12;101047.66;5016951;28;20037;-83
2022/05/18 10:53:00;;;;;;;11.18;6.07;;;;;;;28.37;51.29;101043.78;5056571;28;20044;-82
2022/05/18 10:55:29;;;;;;;10.50;5.57;;;;;;;28.21;52.05;101051.03;5058676;28;20072;-83
2022/05/18 10:58:13;;;;;;;10.30;5.10;;;;;;;28.34;50.90;101036.91;5043417;28;20044;-83
2022/05/18 11:00:54;;;;;;;11.80;5.60;;;;;;;28.50;51.37;101046.00;5040762;28;20074;-85
2022/05/18 11:04:02;;;;;;;14.13;4.68;;;;;;;28.21;51.04;101023.78;5023809;28;20045;-85
2022/05/18 11:06:56;;;;;;;13.10;5.47;;;;;;;27.74;51.48;101027.31;5028267;28;20050;-86
2022/05/18 11:09:32;;;;;;;10.70;4.80;;;;;;;27.99;51.37;101048.47;5048913;28;20045;-88
2022/05/18 11:12:31;;;;;;;11.55;4.25;;;;;;;28.21;50.70;101021.88;5059055;28;20033;-89
2022/05/18 11:15:10;;;;;;;8.43;4.15;;;;;;;28.36;50.20;101033.94;5062040;22;20088;-86
2022/05/18 11:17:55;;;;;;;16.40;4.30;;;;;;;28.31;50.69;101029.28;5050358;28;20037;-85
2022/05/18 11:20:51;;;;;;;12.95;4.53;;;;;;;28.23;51.39;101022.47;5046708;28;20087;-86
2022/05/18 11:23:23;;;;;;;12.35;3.80;;;;;;;28.50;51.22;101016.00;5025227;28;20120;-84
2022/05/18 11:26:06;;;;;;;8.13;3.45;;;;;;;28.14;51.64;101034.94;5021909;28;20084;-85
2022/05/18 11:28:45;;;;;;;12.40;3.75;;;;;;;27.71;52.25;101030.59;5028940;28;20550;-84
2022/05/18 11:31:20;;;;;;;9.55;3.15;;;;;;;27.67;53.38;101020.50;5022806;28;20037;-86
2022/05/18 11:34:07;;;;;;;6.15;3.10;;;;;;;27.49;53.15;101037.25;5022251;28;20092;-85
2022/05/18 11:36:42;;;;;;;13.70;3.92;;;;;;;27.17;53.66;101029.91;5041391;28;20037;-84
2022/05/18 11:39:21;;;;;;;15.55;3.13;;;;;;;27.00;52.95;101012.88;5040649;28;20029;-87
2022/05/18 11:42:17;;;;;;;14.90;3.72;;;;;;;26.97;54.42;101012.56;5042127;28;20079;-84
2022/05/18 11:44:53;;;;;;;11.93;3.25;;;;;;;26.87;53.26;101016.00;5045214;28;20404;-86
2022/05/18 11:47:42;;;;;;;12.00;3.13;;;;;;;26.98;52.76;101004.13;5023567;28;20041;-86
2022/05/18 11:50:14;;;;;;;14.73;3.60;;;;;;;27.10;52.21;101012.97;5040762;28;20034;-87
2022/05/18 11:53:01;;;;;;;6.65;2.90;;;;;;;27.15;52.02;101004.81;5021852;28;20033;-87
2022/05/18 11:55:38;;;;;;;6.43;2.50;;;;;;;27.16;51.81;101014.63;5039524;28;20033;-87
2022/05/18 11:58:47;;;;;;;11.57;2.95;;;;;;;27.23;50.33;101017.97;5021285;28;20045;-86
2022/05/18 12:01:42;;;;;;;11.55;3.22;;;;;;;27.05;49.36;101031.94;5026863;28;20045;-86
2022/05/18 12:04:27;;;;;;;15.98;2.40;;;;;;;27.06;49.17;101027.31;5033332;28;20091;-86
2022/05/18 12:07:14;;;;;;;5.82;2.47;;;;;;;27.01;49.71;101014.50;5036180;28;20029;-87
2022/05/18 12:10:11;;;;;;;7.90;2.60;;;;;;;27.02;49.29;101016.13;5060125;28;20071;-84
2022/05/18 12:12:56;;;;;;;9.18;2.78;;;;;;;27.09;49.98;101005.03;5034317;28;20041;-85
2022/05/18 12:15:45;;;;;;;11.50;2.92;;;;;;;27.09;49.58;101018.66;5025134;28;20138;-86
2022/05/18 12:18:15;;;;;;;9.95;2.55;;;;;;;27.20;48.58;101029.38;5040445;28;20041;-86